sensor_id;sensor_type;location;lat;lon;timestamp;P1;durP1;ratioP1;P2;durP2;ratioP2
75649;SDS011;64245;51.282;22.494;2023-01-06T00:02:00;1.23;;;1.13;;
75649;SDS011;64245;51.282;22.494;2023-01-06T00:04:26;2.97;;;1.10;;
75649;SDS011;64245;51.282;22.494;2023-01-06T00:06:52;1.80;;;1.30;;
75649;SDS011;64245;51.282;22.494;2023-01-06T00:09:17;1.83;;;1.30;;
75649;SDS011;64245;51.282;22.494;2023-01-06T00:11:43;2.05;;;1.20;;
75649;SDS011;64245;51.282;22.494;2023-01-06T00:14:09;2.47;;;1.23;;
75649;SDS011;64245;51.282;22.494;2023-01-06T00:16:34;2.00;;;1.42;;
75649;SDS011;64245;51.282;22.494;2023-01-06T00:19:00;0.70;;;0.60;;
75649;SDS011;64245;51.282;22.494;2023-01-06T00:21:26;2.70;;;1.40;;
75649;SDS011;64245;51.282;22.494;2023-01-06T00:23:53;1.40;;;0.98;;
75649;SDS011;64245;51.282;22.494;2023-01-06T00:26:18;2.03;;;1.10;;
75649;SDS011;64245;51.282;22.494;2023-01-06T00:28:44;2.22;;;1.27;;
75649;SDS011;64245;51.282;22.494;2023-01-06T00:31:11;2.22;;;1.33;;
75649;SDS011;64245;51.282;22.494;2023-01-06T00:33:38;2.47;;;1.42;;
75649;SDS011;64245;51.282;22.494;2023-01-06T00:36:05;2.42;;;1.02;;
75649;SDS011;64245;51.282;22.494;2023-01-06T00:38:32;2.25;;;1.52;;
75649;SDS011;64245;51.282;22.494;2023-01-06T00:41:04;1.80;;;1.40;;
75649;SDS011;64245;51.282;22.494;2023-01-06T00:43:53;2.97;;;1.50;;
75649;SDS011;64245;51.282;22.494;2023-01-06T00:46:19;2.92;;;1.52;;
75649;SDS011;64245;51.282;22.494;2023-01-06T00:48:45;1.17;;;1.08;;
75649;SDS011;64245;51.282;22.494;2023-01-06T00:51:11;2.33;;;1.08;;
75649;SDS011;64245;51.282;22.494;2023-01-06T00:53:37;1.13;;;0.93;;
75649;SDS011;64245;51.282;22.494;2023-01-06T00:56:02;2.03;;;1.70;;
75649;SDS011;64245;51.282;22.494;2023-01-06T00:58:29;1.15;;;0.93;;
75649;SDS011;64245;51.282;22.494;2023-01-06T01:00:55;1.67;;;1.30;;
75649;SDS011;64245;51.282;22.494;2023-01-06T01:03:22;3.17;;;1.48;;
75649;SDS011;64245;51.282;22.494;2023-01-06T01:05:47;2.58;;;1.98;;
75649;SDS011;64245;51.282;22.494;2023-01-06T01:08:13;2.08;;;1.48;;
75649;SDS011;64245;51.282;22.494;2023-01-06T01:10:39;2.70;;;2.15;;
75649;SDS011;64245;51.282;22.494;2023-01-06T01:13:04;1.85;;;1.30;;
75649;SDS011;64245;51.282;22.494;2023-01-06T01:15:30;1.33;;;1.05;;
75649;SDS011;64245;51.282;22.494;2023-01-06T01:17:56;2.47;;;1.65;;
75649;SDS011;64245;51.282;22.494;2023-01-06T01:20:21;2.67;;;1.48;;
75649;SDS011;64245;51.282;22.494;2023-01-06T01:22:47;1.52;;;1.27;;
75649;SDS011;64245;51.282;22.494;2023-01-06T01:25:12;1.30;;;0.77;;
75649;SDS011;64245;51.282;22.494;2023-01-06T01:27:38;2.08;;;1.65;;
75649;SDS011;64245;51.282;22.494;2023-01-06T01:30:04;2.33;;;1.30;;
75649;SDS011;64245;51.282;22.494;2023-01-06T01:32:31;1.85;;;1.55;;
75649;SDS011;64245;51.282;22.494;2023-01-06T01:34:56;2.97;;;1.95;;
75649;SDS011;64245;51.282;22.494;2023-01-06T01:37:22;3.80;;;1.77;;
75649;SDS011;64245;51.282;22.494;2023-01-06T01:39:47;3.13;;;1.45;;
75649;SDS011;64245;51.282;22.494;2023-01-06T01:42:14;2.38;;;2.13;;
75649;SDS011;64245;51.282;22.494;2023-01-06T01:44:55;3.47;;;1.73;;
75649;SDS011;64245;51.282;22.494;2023-01-06T01:47:41;3.45;;;2.30;;
75649;SDS011;64245;51.282;22.494;2023-01-06T01:50:13;3.47;;;1.20;;
75649;SDS011;64245;51.282;22.494;2023-01-06T01:53:06;3.03;;;2.13;;
75649;SDS011;64245;51.282;22.494;2023-01-06T01:55:34;5.20;;;2.83;;
75649;SDS011;64245;51.282;22.494;2023-01-06T01:58:05;3.80;;;2.92;;
75649;SDS011;64245;51.282;22.494;2023-01-06T02:00:34;2.95;;;2.28;;
75649;SDS011;64245;51.282;22.494;2023-01-06T02:03:03;3.00;;;2.15;;
75649;SDS011;64245;51.282;22.494;2023-01-06T02:05:30;4.53;;;2.25;;
75649;SDS011;64245;51.282;22.494;2023-01-06T02:07:59;3.55;;;2.65;;
75649;SDS011;64245;51.282;22.494;2023-01-06T02:10:29;4.75;;;2.65;;
75649;SDS011;64245;51.282;22.494;2023-01-06T02:12:56;3.40;;;2.15;;
75649;SDS011;64245;51.282;22.494;2023-01-06T02:15:24;4.88;;;2.83;;
75649;SDS011;64245;51.282;22.494;2023-01-06T02:20:34;5.38;;;2.75;;
75649;SDS011;64245;51.282;22.494;2023-01-06T02:34:14;4.70;;;2.75;;
75649;SDS011;64245;51.282;22.494;2023-01-06T02:42:11;4.35;;;2.67;;
75649;SDS011;64245;51.282;22.494;2023-01-06T02:45:10;4.88;;;2.92;;
75649;SDS011;64245;51.282;22.494;2023-01-06T02:50:19;4.53;;;2.80;;
75649;SDS011;64245;51.282;22.494;2023-01-06T02:55:37;5.57;;;3.13;;
75649;SDS011;64245;51.282;22.494;2023-01-06T03:00:53;5.47;;;3.28;;
75649;SDS011;64245;51.282;22.494;2023-01-06T03:03:25;5.63;;;3.05;;
75649;SDS011;64245;51.282;22.494;2023-01-06T03:05:56;4.28;;;2.83;;
75649;SDS011;64245;51.282;22.494;2023-01-06T03:08:26;2.90;;;1.92;;
75649;SDS011;64245;51.282;22.494;2023-01-06T03:10:55;5.22;;;3.47;;
75649;SDS011;64245;51.282;22.494;2023-01-06T03:16:10;4.95;;;3.22;;
75649;SDS011;64245;51.282;22.494;2023-01-06T03:18:37;4.97;;;2.80;;
75649;SDS011;64245;51.282;22.494;2023-01-06T03:21:08;5.60;;;3.65;;
75649;SDS011;64245;51.282;22.494;2023-01-06T03:23:38;4.13;;;2.35;;
75649;SDS011;64245;51.282;22.494;2023-01-06T03:26:05;5.35;;;3.50;;
75649;SDS011;64245;51.282;22.494;2023-01-06T03:28:30;4.90;;;2.85;;
75649;SDS011;64245;51.282;22.494;2023-01-06T03:37:12;3.85;;;2.70;;
75649;SDS011;64245;51.282;22.494;2023-01-06T03:39:52;3.58;;;1.90;;
75649;SDS011;64245;51.282;22.494;2023-01-06T03:51:04;5.63;;;2.85;;
75649;SDS011;64245;51.282;22.494;2023-01-06T03:53:41;4.72;;;3.10;;
75649;SDS011;64245;51.282;22.494;2023-01-06T03:56:15;4.03;;;2.47;;
75649;SDS011;64245;51.282;22.494;2023-01-06T03:58:54;5.78;;;3.30;;
75649;SDS011;64245;51.282;22.494;2023-01-06T04:01:23;6.15;;;2.38;;
75649;SDS011;64245;51.282;22.494;2023-01-06T04:03:51;4.07;;;1.90;;
75649;SDS011;64245;51.282;22.494;2023-01-06T04:06:19;3.67;;;2.50;;
75649;SDS011;64245;51.282;22.494;2023-01-06T04:08:44;4.38;;;2.63;;
75649;SDS011;64245;51.282;22.494;2023-01-06T04:11:10;5.53;;;2.97;;
75649;SDS011;64245;51.282;22.494;2023-01-06T04:13:56;6.60;;;3.45;;
75649;SDS011;64245;51.282;22.494;2023-01-06T04:16:21;5.10;;;3.15;;
75649;SDS011;64245;51.282;22.494;2023-01-06T04:18:47;7.22;;;3.15;;
75649;SDS011;64245;51.282;22.494;2023-01-06T04:21:13;6.47;;;3.28;;
75649;SDS011;64245;51.282;22.494;2023-01-06T04:23:38;5.82;;;3.75;;
75649;SDS011;64245;51.282;22.494;2023-01-06T04:26:04;6.88;;;4.03;;
75649;SDS011;64245;51.282;22.494;2023-01-06T04:28:30;6.55;;;3.03;;
75649;SDS011;64245;51.282;22.494;2023-01-06T04:30:58;6.45;;;4.30;;
75649;SDS011;64245;51.282;22.494;2023-01-06T04:33:26;6.80;;;3.78;;
75649;SDS011;64245;51.282;22.494;2023-01-06T04:35:52;7.07;;;4.38;;
75649;SDS011;64245;51.282;22.494;2023-01-06T04:38:18;6.80;;;3.45;;
75649;SDS011;64245;51.282;22.494;2023-01-06T04:40:43;5.82;;;3.78;;
75649;SDS011;64245;51.282;22.494;2023-01-06T04:43:09;7.38;;;4.05;;
75649;SDS011;64245;51.282;22.494;2023-01-06T04:45:41;6.57;;;3.13;;
75649;SDS011;64245;51.282;22.494;2023-01-06T04:48:08;5.97;;;2.95;;
75649;SDS011;64245;51.282;22.494;2023-01-06T04:50:35;7.65;;;3.85;;
75649;SDS011;64245;51.282;22.494;2023-01-06T04:53:01;6.63;;;3.78;;
75649;SDS011;64245;51.282;22.494;2023-01-06T04:55:27;7.65;;;4.15;;
75649;SDS011;64245;51.282;22.494;2023-01-06T04:57:53;6.18;;;3.63;;
75649;SDS011;64245;51.282;22.494;2023-01-06T05:00:19;6.03;;;3.60;;
75649;SDS011;64245;51.282;22.494;2023-01-06T05:02:45;5.57;;;3.45;;
75649;SDS011;64245;51.282;22.494;2023-01-06T05:05:11;5.53;;;3.28;;
75649;SDS011;64245;51.282;22.494;2023-01-06T05:07:38;4.97;;;3.28;;
75649;SDS011;64245;51.282;22.494;2023-01-06T05:10:04;6.55;;;3.65;;
75649;SDS011;64245;51.282;22.494;2023-01-06T05:12:31;6.28;;;3.75;;
75649;SDS011;64245;51.282;22.494;2023-01-06T05:14:57;8.00;;;3.92;;
75649;SDS011;64245;51.282;22.494;2023-01-06T05:17:23;7.00;;;3.60;;
75649;SDS011;64245;51.282;22.494;2023-01-06T05:19:49;6.40;;;3.80;;
75649;SDS011;64245;51.282;22.494;2023-01-06T05:22:15;5.60;;;3.10;;
75649;SDS011;64245;51.282;22.494;2023-01-06T05:24:41;7.45;;;3.47;;
75649;SDS011;64245;51.282;22.494;2023-01-06T05:27:07;4.40;;;2.83;;
75649;SDS011;64245;51.282;22.494;2023-01-06T05:29:33;5.70;;;3.25;;
75649;SDS011;64245;51.282;22.494;2023-01-06T05:31:59;4.50;;;2.88;;
75649;SDS011;64245;51.282;22.494;2023-01-06T05:34:24;7.35;;;3.92;;
75649;SDS011;64245;51.282;22.494;2023-01-06T05:36:50;4.95;;;3.40;;
75649;SDS011;64245;51.282;22.494;2023-01-06T05:39:15;6.88;;;3.38;;
75649;SDS011;64245;51.282;22.494;2023-01-06T05:41:41;7.35;;;3.78;;
75649;SDS011;64245;51.282;22.494;2023-01-06T05:44:07;5.75;;;3.25;;
75649;SDS011;64245;51.282;22.494;2023-01-06T05:46:32;5.85;;;3.40;;
75649;SDS011;64245;51.282;22.494;2023-01-06T05:48:58;6.43;;;3.13;;
75649;SDS011;64245;51.282;22.494;2023-01-06T05:51:25;4.75;;;3.28;;
75649;SDS011;64245;51.282;22.494;2023-01-06T05:53:50;6.10;;;3.78;;
75649;SDS011;64245;51.282;22.494;2023-01-06T05:56:17;6.18;;;3.42;;
75649;SDS011;64245;51.282;22.494;2023-01-06T05:58:45;5.38;;;2.92;;
75649;SDS011;64245;51.282;22.494;2023-01-06T06:01:17;5.65;;;3.20;;
75649;SDS011;64245;51.282;22.494;2023-01-06T06:03:50;6.07;;;3.17;;
75649;SDS011;64245;51.282;22.494;2023-01-06T06:06:17;5.60;;;3.38;;
75649;SDS011;64245;51.282;22.494;2023-01-06T06:08:43;5.75;;;3.50;;
75649;SDS011;64245;51.282;22.494;2023-01-06T06:11:10;7.22;;;3.47;;
75649;SDS011;64245;51.282;22.494;2023-01-06T06:13:38;6.15;;;3.70;;
75649;SDS011;64245;51.282;22.494;2023-01-06T06:16:09;5.68;;;3.53;;
75649;SDS011;64245;51.282;22.494;2023-01-06T06:18:37;6.68;;;3.97;;
75649;SDS011;64245;51.282;22.494;2023-01-06T06:21:07;7.72;;;3.53;;
75649;SDS011;64245;51.282;22.494;2023-01-06T06:23:37;7.38;;;3.67;;
75649;SDS011;64245;51.282;22.494;2023-01-06T06:26:03;6.13;;;3.50;;
75649;SDS011;64245;51.282;22.494;2023-01-06T06:28:29;5.78;;;3.47;;
75649;SDS011;64245;51.282;22.494;2023-01-06T06:31:02;6.72;;;3.70;;
75649;SDS011;64245;51.282;22.494;2023-01-06T06:33:34;4.95;;;3.05;;
75649;SDS011;64245;51.282;22.494;2023-01-06T06:36:00;5.63;;;3.83;;
75649;SDS011;64245;51.282;22.494;2023-01-06T06:38:26;4.25;;;2.70;;
75649;SDS011;64245;51.282;22.494;2023-01-06T06:40:52;5.13;;;3.28;;
75649;SDS011;64245;51.282;22.494;2023-01-06T06:43:18;5.32;;;2.67;;
75649;SDS011;64245;51.282;22.494;2023-01-06T06:45:45;5.75;;;3.03;;
75649;SDS011;64245;51.282;22.494;2023-01-06T06:48:11;5.57;;;2.72;;
75649;SDS011;64245;51.282;22.494;2023-01-06T06:50:38;4.28;;;2.47;;
75649;SDS011;64245;51.282;22.494;2023-01-06T06:53:04;5.03;;;2.60;;
75649;SDS011;64245;51.282;22.494;2023-01-06T06:55:31;5.85;;;3.10;;
75649;SDS011;64245;51.282;22.494;2023-01-06T06:57:57;5.55;;;3.17;;
75649;SDS011;64245;51.282;22.494;2023-01-06T07:00:23;5.25;;;2.70;;
75649;SDS011;64245;51.282;22.494;2023-01-06T07:02:49;5.43;;;2.67;;
75649;SDS011;64245;51.282;22.494;2023-01-06T07:05:15;4.50;;;2.63;;
75649;SDS011;64245;51.282;22.494;2023-01-06T07:07:41;4.00;;;2.33;;
75649;SDS011;64245;51.282;22.494;2023-01-06T07:10:11;5.10;;;3.00;;
75649;SDS011;64245;51.282;22.494;2023-01-06T07:12:38;4.40;;;2.42;;
75649;SDS011;64245;51.282;22.494;2023-01-06T07:15:04;5.95;;;2.70;;
75649;SDS011;64245;51.282;22.494;2023-01-06T07:17:30;4.35;;;2.42;;
75649;SDS011;64245;51.282;22.494;2023-01-06T07:19:55;7.13;;;3.08;;
75649;SDS011;64245;51.282;22.494;2023-01-06T07:22:21;4.10;;;2.28;;
75649;SDS011;64245;51.282;22.494;2023-01-06T07:24:47;4.55;;;2.67;;
75649;SDS011;64245;51.282;22.494;2023-01-06T07:27:12;5.72;;;3.15;;
75649;SDS011;64245;51.282;22.494;2023-01-06T07:29:38;5.18;;;3.15;;
75649;SDS011;64245;51.282;22.494;2023-01-06T07:32:03;4.82;;;2.78;;
75649;SDS011;64245;51.282;22.494;2023-01-06T07:34:30;4.53;;;3.00;;
75649;SDS011;64245;51.282;22.494;2023-01-06T07:36:56;6.03;;;3.15;;
75649;SDS011;64245;51.282;22.494;2023-01-06T07:39:22;5.63;;;2.85;;
75649;SDS011;64245;51.282;22.494;2023-01-06T07:41:47;9.02;;;2.33;;
75649;SDS011;64245;51.282;22.494;2023-01-06T07:44:13;5.85;;;3.58;;
75649;SDS011;64245;51.282;22.494;2023-01-06T07:46:38;5.70;;;3.47;;
75649;SDS011;64245;51.282;22.494;2023-01-06T07:49:04;5.40;;;2.90;;
75649;SDS011;64245;51.282;22.494;2023-01-06T07:51:30;3.95;;;2.58;;
75649;SDS011;64245;51.282;22.494;2023-01-06T07:53:55;5.97;;;3.15;;
75649;SDS011;64245;51.282;22.494;2023-01-06T07:56:21;5.15;;;2.97;;
75649;SDS011;64245;51.282;22.494;2023-01-06T07:58:48;4.28;;;2.75;;
75649;SDS011;64245;51.282;22.494;2023-01-06T08:01:13;6.43;;;3.15;;
75649;SDS011;64245;51.282;22.494;2023-01-06T08:03:39;5.60;;;3.17;;
75649;SDS011;64245;51.282;22.494;2023-01-06T08:06:08;5.05;;;2.35;;
75649;SDS011;64245;51.282;22.494;2023-01-06T08:08:38;5.35;;;3.03;;
75649;SDS011;64245;51.282;22.494;2023-01-06T08:11:06;6.50;;;3.38;;
75649;SDS011;64245;51.282;22.494;2023-01-06T08:13:32;4.22;;;2.15;;
75649;SDS011;64245;51.282;22.494;2023-01-06T08:16:08;5.13;;;2.67;;
75649;SDS011;64245;51.282;22.494;2023-01-06T08:18:35;6.97;;;3.30;;
75649;SDS011;64245;51.282;22.494;2023-01-06T08:21:02;5.22;;;2.92;;
75649;SDS011;64245;51.282;22.494;2023-01-06T08:23:29;6.80;;;3.13;;
75649;SDS011;64245;51.282;22.494;2023-01-06T08:26:02;5.45;;;3.00;;
75649;SDS011;64245;51.282;22.494;2023-01-06T08:28:29;7.38;;;3.03;;
75649;SDS011;64245;51.282;22.494;2023-01-06T08:30:54;4.95;;;2.95;;
75649;SDS011;64245;51.282;22.494;2023-01-06T08:33:20;4.85;;;2.80;;
75649;SDS011;64245;51.282;22.494;2023-01-06T08:35:48;5.13;;;2.80;;
75649;SDS011;64245;51.282;22.494;2023-01-06T08:38:14;7.00;;;3.38;;
75649;SDS011;64245;51.282;22.494;2023-01-06T08:40:40;5.00;;;2.88;;
75649;SDS011;64245;51.282;22.494;2023-01-06T08:43:06;7.28;;;3.33;;
75649;SDS011;64245;51.282;22.494;2023-01-06T08:45:31;6.07;;;2.90;;
75649;SDS011;64245;51.282;22.494;2023-01-06T08:47:57;5.55;;;2.55;;
75649;SDS011;64245;51.282;22.494;2023-01-06T08:50:22;4.80;;;2.83;;
75649;SDS011;64245;51.282;22.494;2023-01-06T08:52:48;6.32;;;3.33;;
75649;SDS011;64245;51.282;22.494;2023-01-06T08:55:14;3.95;;;2.72;;
75649;SDS011;64245;51.282;22.494;2023-01-06T08:57:40;3.70;;;2.65;;
75649;SDS011;64245;51.282;22.494;2023-01-06T09:00:05;3.47;;;2.28;;
75649;SDS011;64245;51.282;22.494;2023-01-06T09:02:32;6.70;;;3.25;;
75649;SDS011;64245;51.282;22.494;2023-01-06T09:04:57;4.25;;;2.70;;
75649;SDS011;64245;51.282;22.494;2023-01-06T09:07:23;4.85;;;3.10;;
75649;SDS011;64245;51.282;22.494;2023-01-06T09:09:49;4.78;;;2.67;;
75649;SDS011;64245;51.282;22.494;2023-01-06T09:12:14;4.95;;;2.88;;
75649;SDS011;64245;51.282;22.494;2023-01-06T09:14:40;6.15;;;2.97;;
75649;SDS011;64245;51.282;22.494;2023-01-06T09:17:06;4.88;;;2.90;;
75649;SDS011;64245;51.282;22.494;2023-01-06T09:19:31;3.95;;;2.80;;
75649;SDS011;64245;51.282;22.494;2023-01-06T09:21:57;6.47;;;2.78;;
75649;SDS011;64245;51.282;22.494;2023-01-06T09:24:22;5.53;;;3.47;;
75649;SDS011;64245;51.282;22.494;2023-01-06T09:26:48;3.83;;;2.10;;
75649;SDS011;64245;51.282;22.494;2023-01-06T09:29:14;4.10;;;2.83;;
75649;SDS011;64245;51.282;22.494;2023-01-06T09:31:40;2.80;;;2.00;;
75649;SDS011;64245;51.282;22.494;2023-01-06T09:34:05;3.35;;;2.03;;
75649;SDS011;64245;51.282;22.494;2023-01-06T09:36:31;2.53;;;1.77;;
75649;SDS011;64245;51.282;22.494;2023-01-06T09:38:58;4.05;;;2.13;;
75649;SDS011;64245;51.282;22.494;2023-01-06T09:44:15;5.10;;;2.67;;
75649;SDS011;64245;51.282;22.494;2023-01-06T09:46:45;3.30;;;2.47;;
75649;SDS011;64245;51.282;22.494;2023-01-06T09:52:11;3.85;;;2.22;;
75649;SDS011;64245;51.282;22.494;2023-01-06T09:54:47;3.67;;;1.88;;
75649;SDS011;64245;51.282;22.494;2023-01-06T09:57:25;3.25;;;1.50;;
75649;SDS011;64245;51.282;22.494;2023-01-06T09:59:59;5.22;;;3.05;;
75649;SDS011;64245;51.282;22.494;2023-01-06T10:02:32;4.40;;;2.50;;
75649;SDS011;64245;51.282;22.494;2023-01-06T10:05:02;4.30;;;2.17;;
75649;SDS011;64245;51.282;22.494;2023-01-06T10:07:43;4.43;;;2.47;;
75649;SDS011;64245;51.282;22.494;2023-01-06T10:16:07;5.60;;;3.10;;
75649;SDS011;64245;51.282;22.494;2023-01-06T10:21:26;4.97;;;2.88;;
75649;SDS011;64245;51.282;22.494;2023-01-06T10:26:55;4.95;;;3.10;;
75649;SDS011;64245;51.282;22.494;2023-01-06T10:31:52;4.75;;;1.92;;
75649;SDS011;64245;51.282;22.494;2023-01-06T10:34:24;8.40;;;3.95;;
75649;SDS011;64245;51.282;22.494;2023-01-06T10:37:01;7.05;;;3.83;;
75649;SDS011;64245;51.282;22.494;2023-01-06T10:39:39;5.60;;;3.67;;
75649;SDS011;64245;51.282;22.494;2023-01-06T10:47:27;3.95;;;2.38;;
75649;SDS011;64245;51.282;22.494;2023-01-06T10:49:56;4.13;;;2.67;;
75649;SDS011;64245;51.282;22.494;2023-01-06T10:52:22;4.38;;;2.83;;
75649;SDS011;64245;51.282;22.494;2023-01-06T10:54:49;6.95;;;3.63;;
75649;SDS011;64245;51.282;22.494;2023-01-06T10:57:20;5.75;;;2.97;;
75649;SDS011;64245;51.282;22.494;2023-01-06T11:00:22;7.13;;;2.95;;
75649;SDS011;64245;51.282;22.494;2023-01-06T11:02:49;5.50;;;3.45;;
75649;SDS011;64245;51.282;22.494;2023-01-06T11:05:18;4.25;;;3.00;;
75649;SDS011;64245;51.282;22.494;2023-01-06T11:07:50;6.45;;;3.42;;
75649;SDS011;64245;51.282;22.494;2023-01-06T11:10:59;6.78;;;3.63;;
75649;SDS011;64245;51.282;22.494;2023-01-06T11:16:00;6.25;;;3.55;;
75649;SDS011;64245;51.282;22.494;2023-01-06T11:18:28;5.15;;;2.63;;
75649;SDS011;64245;51.282;22.494;2023-01-06T11:21:10;5.95;;;3.53;;
75649;SDS011;64245;51.282;22.494;2023-01-06T11:23:38;5.13;;;2.88;;
75649;SDS011;64245;51.282;22.494;2023-01-06T11:28:31;8.35;;;3.63;;
75649;SDS011;64245;51.282;22.494;2023-01-06T11:30:59;5.97;;;3.65;;
75649;SDS011;64245;51.282;22.494;2023-01-06T11:33:28;8.50;;;4.00;;
75649;SDS011;64245;51.282;22.494;2023-01-06T11:35:57;8.55;;;4.15;;
75649;SDS011;64245;51.282;22.494;2023-01-06T11:38:30;10.05;;;4.03;;
75649;SDS011;64245;51.282;22.494;2023-01-06T11:40:56;7.95;;;4.57;;
75649;SDS011;64245;51.282;22.494;2023-01-06T11:48:37;8.75;;;4.38;;
75649;SDS011;64245;51.282;22.494;2023-01-06T11:51:07;10.32;;;4.43;;
75649;SDS011;64245;51.282;22.494;2023-01-06T11:53:33;9.57;;;4.57;;
75649;SDS011;64245;51.282;22.494;2023-01-06T12:01:19;8.90;;;4.28;;
75649;SDS011;64245;51.282;22.494;2023-01-06T12:03:53;7.75;;;4.63;;
75649;SDS011;64245;51.282;22.494;2023-01-06T12:06:39;10.00;;;4.82;;
75649;SDS011;64245;51.282;22.494;2023-01-06T12:14:21;8.93;;;4.88;;
75649;SDS011;64245;51.282;22.494;2023-01-06T12:19:51;7.40;;;4.43;;
75649;SDS011;64245;51.282;22.494;2023-01-06T12:24:57;7.43;;;4.60;;
75649;SDS011;64245;51.282;22.494;2023-01-06T12:27:29;7.60;;;4.53;;
75649;SDS011;64245;51.282;22.494;2023-01-06T12:29:59;7.43;;;4.22;;
75649;SDS011;64245;51.282;22.494;2023-01-06T12:32:28;9.10;;;4.25;;
75649;SDS011;64245;51.282;22.494;2023-01-06T12:35:03;7.07;;;4.53;;
75649;SDS011;64245;51.282;22.494;2023-01-06T12:37:32;7.18;;;4.35;;
75649;SDS011;64245;51.282;22.494;2023-01-06T12:40:07;9.48;;;4.57;;
75649;SDS011;64245;51.282;22.494;2023-01-06T12:45:15;9.57;;;5.20;;
75649;SDS011;64245;51.282;22.494;2023-01-06T12:47:53;8.40;;;5.05;;
75649;SDS011;64245;51.282;22.494;2023-01-06T12:50:39;9.02;;;5.63;;
75649;SDS011;64245;51.282;22.494;2023-01-06T12:53:14;7.75;;;4.65;;
75649;SDS011;64245;51.282;22.494;2023-01-06T12:56:01;9.10;;;4.88;;
75649;SDS011;64245;51.282;22.494;2023-01-06T13:01:44;12.80;;;5.55;;
75649;SDS011;64245;51.282;22.494;2023-01-06T13:07:25;9.10;;;5.85;;
75649;SDS011;64245;51.282;22.494;2023-01-06T13:16:13;11.13;;;5.25;;
75649;SDS011;64245;51.282;22.494;2023-01-06T13:18:45;8.20;;;5.20;;
75649;SDS011;64245;51.282;22.494;2023-01-06T13:21:22;11.65;;;5.40;;
75649;SDS011;64245;51.282;22.494;2023-01-06T13:26:52;10.20;;;5.70;;
75649;SDS011;64245;51.282;22.494;2023-01-06T13:35:17;11.35;;;5.28;;
75649;SDS011;64245;51.282;22.494;2023-01-06T13:40:37;12.52;;;5.57;;
75649;SDS011;64245;51.282;22.494;2023-01-06T13:45:41;15.75;;;7.00;;
75649;SDS011;64245;51.282;22.494;2023-01-06T13:48:20;16.75;;;7.65;;
75649;SDS011;64245;51.282;22.494;2023-01-06T13:50:49;15.35;;;7.18;;
75649;SDS011;64245;51.282;22.494;2023-01-06T13:53:16;13.65;;;6.95;;
75649;SDS011;64245;51.282;22.494;2023-01-06T13:55:46;13.18;;;6.63;;
75649;SDS011;64245;51.282;22.494;2023-01-06T14:01:09;16.70;;;7.85;;
75649;SDS011;64245;51.282;22.494;2023-01-06T14:03:36;17.17;;;7.57;;
75649;SDS011;64245;51.282;22.494;2023-01-06T14:06:03;23.50;;;9.50;;
75649;SDS011;64245;51.282;22.494;2023-01-06T14:08:30;18.48;;;8.45;;
75649;SDS011;64245;51.282;22.494;2023-01-06T14:11:03;20.67;;;9.35;;
75649;SDS011;64245;51.282;22.494;2023-01-06T14:13:32;20.10;;;9.02;;
75649;SDS011;64245;51.282;22.494;2023-01-06T14:16:05;22.45;;;9.27;;
75649;SDS011;64245;51.282;22.494;2023-01-06T14:18:35;20.63;;;8.55;;
75649;SDS011;64245;51.282;22.494;2023-01-06T14:21:14;21.63;;;8.73;;
75649;SDS011;64245;51.282;22.494;2023-01-06T14:23:50;20.83;;;8.57;;
75649;SDS011;64245;51.282;22.494;2023-01-06T14:26:19;20.15;;;9.55;;
75649;SDS011;64245;51.282;22.494;2023-01-06T14:28:46;19.75;;;9.18;;
75649;SDS011;64245;51.282;22.494;2023-01-06T14:33:56;22.48;;;10.18;;
75649;SDS011;64245;51.282;22.494;2023-01-06T14:36:24;21.95;;;10.35;;
75649;SDS011;64245;51.282;22.494;2023-01-06T14:38:55;27.23;;;10.45;;
75649;SDS011;64245;51.282;22.494;2023-01-06T14:41:26;25.27;;;9.93;;
75649;SDS011;64245;51.282;22.494;2023-01-06T14:43:58;21.05;;;10.05;;
75649;SDS011;64245;51.282;22.494;2023-01-06T14:46:30;23.25;;;9.35;;
75649;SDS011;64245;51.282;22.494;2023-01-06T14:49:03;25.15;;;10.82;;
75649;SDS011;64245;51.282;22.494;2023-01-06T14:51:31;24.75;;;10.30;;
75649;SDS011;64245;51.282;22.494;2023-01-06T14:54:17;21.50;;;9.60;;
75649;SDS011;64245;51.282;22.494;2023-01-06T14:56:52;24.70;;;9.60;;
75649;SDS011;64245;51.282;22.494;2023-01-06T14:59:19;26.02;;;10.75;;
75649;SDS011;64245;51.282;22.494;2023-01-06T15:02:32;27.80;;;10.10;;
75649;SDS011;64245;51.282;22.494;2023-01-06T15:04:40;24.77;;;9.38;;
75649;SDS011;64245;51.282;22.494;2023-01-06T15:09:45;38.58;;;11.60;;
75649;SDS011;64245;51.282;22.494;2023-01-06T15:12:25;39.95;;;13.07;;
75649;SDS011;64245;51.282;22.494;2023-01-06T15:14:53;40.47;;;13.90;;
75649;SDS011;64245;51.282;22.494;2023-01-06T15:17:18;49.58;;;15.88;;
75649;SDS011;64245;51.282;22.494;2023-01-06T15:19:46;56.60;;;15.88;;
75649;SDS011;64245;51.282;22.494;2023-01-06T15:22:20;48.90;;;17.58;;
75649;SDS011;64245;51.282;22.494;2023-01-06T15:24:49;43.75;;;17.20;;
75649;SDS011;64245;51.282;22.494;2023-01-06T15:27:15;35.58;;;15.50;;
75649;SDS011;64245;51.282;22.494;2023-01-06T15:29:52;42.75;;;16.98;;
75649;SDS011;64245;51.282;22.494;2023-01-06T15:32:20;40.20;;;13.40;;
75649;SDS011;64245;51.282;22.494;2023-01-06T15:34:48;37.60;;;14.85;;
75649;SDS011;64245;51.282;22.494;2023-01-06T15:37:22;34.05;;;14.48;;
75649;SDS011;64245;51.282;22.494;2023-01-06T15:39:50;39.35;;;17.13;;
75649;SDS011;64245;51.282;22.494;2023-01-06T15:42:18;35.70;;;14.55;;
75649;SDS011;64245;51.282;22.494;2023-01-06T15:44:57;34.97;;;16.08;;
75649;SDS011;64245;51.282;22.494;2023-01-06T15:47:31;42.03;;;18.08;;
75649;SDS011;64245;51.282;22.494;2023-01-06T15:50:08;41.53;;;17.60;;
75649;SDS011;64245;51.282;22.494;2023-01-06T15:52:44;38.35;;;15.70;;
75649;SDS011;64245;51.282;22.494;2023-01-06T15:55:22;34.03;;;15.02;;
75649;SDS011;64245;51.282;22.494;2023-01-06T15:57:52;34.90;;;16.33;;
75649;SDS011;64245;51.282;22.494;2023-01-06T16:00:28;38.30;;;16.08;;
75649;SDS011;64245;51.282;22.494;2023-01-06T16:02:58;37.78;;;16.25;;
75649;SDS011;64245;51.282;22.494;2023-01-06T16:05:40;35.88;;;14.63;;
75649;SDS011;64245;51.282;22.494;2023-01-06T16:08:40;37.15;;;13.85;;
75649;SDS011;64245;51.282;22.494;2023-01-06T16:13:40;34.97;;;14.00;;
75649;SDS011;64245;51.282;22.494;2023-01-06T16:18:39;33.83;;;13.60;;
75649;SDS011;64245;51.282;22.494;2023-01-06T16:21:14;34.03;;;15.02;;
75649;SDS011;64245;51.282;22.494;2023-01-06T16:23:47;33.83;;;14.40;;
75649;SDS011;64245;51.282;22.494;2023-01-06T16:26:16;32.28;;;14.20;;
75649;SDS011;64245;51.282;22.494;2023-01-06T16:28:45;35.67;;;15.82;;
75649;SDS011;64245;51.282;22.494;2023-01-06T16:31:27;30.38;;;13.65;;
75649;SDS011;64245;51.282;22.494;2023-01-06T16:34:13;30.75;;;13.68;;
75649;SDS011;64245;51.282;22.494;2023-01-06T16:36:50;28.70;;;12.88;;
75649;SDS011;64245;51.282;22.494;2023-01-06T16:39:18;17.42;;;9.70;;
75649;SDS011;64245;51.282;22.494;2023-01-06T16:44:25;24.77;;;10.95;;
75649;SDS011;64245;51.282;22.494;2023-01-06T16:46:55;22.67;;;11.48;;
75649;SDS011;64245;51.282;22.494;2023-01-06T16:49:24;37.58;;;15.88;;
75649;SDS011;64245;51.282;22.494;2023-01-06T16:51:50;40.47;;;17.42;;
75649;SDS011;64245;51.282;22.494;2023-01-06T16:54:16;38.13;;;16.13;;
75649;SDS011;64245;51.282;22.494;2023-01-06T16:56:43;35.53;;;16.15;;
75649;SDS011;64245;51.282;22.494;2023-01-06T16:59:11;41.97;;;16.05;;
75649;SDS011;64245;51.282;22.494;2023-01-06T17:01:38;39.50;;;15.52;;
75649;SDS011;64245;51.282;22.494;2023-01-06T17:04:05;31.10;;;14.65;;